FW8282 Weather Reports


Display with metric or nautical units.
time (UTC)temp
F
wind
direction
speed
MPH
gust
MPH
rain 1hr
in
rain 24hr
in
rain mn
in
humidity
%
barometer
mb
20240621201224 91 166 2.0 2.0 0.00 0.00 0.00 67 1015.4
20240621200723 92 281 2.0 3.0 0.00 0.00 0.00 67 1015.6
20240621200221 91 310 1.0 2.0 0.00 0.00 0.00 68 1015.7
20240621195719 91 269 0.0 0.0 0.00 0.00 0.00 69 1015.5
20240621195217 92 237 1.0 2.0 0.00 0.00 0.00 65 1015.8
20240621194716 91 342 2.0 2.0 0.00 0.00 0.00 66 1015.9
20240621194214 91 161 3.0 3.0 0.00 0.00 0.00 66 1015.8
20240621193713 91 45 0.0 0.0 0.00 0.00 0.00 68 1015.9
20240621193212 91 172 0.0 0.0 0.00 0.00 0.00 69 1015.7
20240621192708 90 175 0.0 0.0 0.00 0.00 0.00 69 1015.9
20240621192207 88 174 0.0 0.0 0.00 0.00 0.00 72 1015.8
20240621191705 88 194 1.0 1.0 0.00 0.00 0.00 74 1016.0
20240621191205 88 96 0.0 0.0 0.00 0.00 0.00 73 1016.1
20240621190703 89 158 0.0 1.0 0.00 0.00 0.00 73 1016.3
20240621190202 89 170 0.0 0.0 0.00 0.00 0.00 71 1016.4
20240621185701 89 151 0.0 0.0 0.00 0.00 0.00 70 1016.6
20240621185159 88 162 0.0 0.0 0.00 0.00 0.00 71 1016.5
20240621184656 89 106 0.0 0.0 0.00 0.00 0.00 72 1016.5
20240621184155 89 143 0.0 0.0 0.00 0.00 0.00 70 1016.5
20240621183654 89 88 0.0 0.0 0.00 0.00 0.00 69 1016.7
20240621183153 89 79 0.0 0.0 0.00 0.00 0.00 68 1016.7
20240621182651 89 173 0.0 0.0 0.00 0.00 0.00 70 1016.6
20240621182149 89 177 0.0 0.0 0.00 0.00 0.00 70 1016.8
20240621181647 88 214 0.0 0.0 0.00 0.00 0.00 70 1016.7
20240621181145 88 181 0.0 0.0 0.00 0.00 0.00 72 1016.7
20240621180644 88 151 0.0 1.0 0.00 0.00 0.00 70 1016.7
20240621180142 88 262 0.0 0.0 0.00 0.00 0.00 72 1016.9
20240621175639 88 127 0.0 0.0 0.00 0.00 0.00 72 1017.1
20240621175137 89 112 0.0 0.0 0.00 0.00 0.00 71 1017.0
20240621174634 89 155 0.0 1.0 0.00 0.00 0.00 70 1017.1
20240621174134 89 152 0.0 0.0 0.00 0.00 0.00 70 1017.2
20240621173630 90 167 1.0 1.0 0.00 0.00 0.00 69 1016.8
20240621173130 91 56 2.0 3.0 0.00 0.00 0.00 67 1017.1
20240621172629 90 191 1.0 1.0 0.00 0.00 0.00 68 1017.1
20240621172128 89 179 0.0 1.0 0.00 0.00 0.00 72 1017.2
20240621171627 89 174 1.0 1.0 0.00 0.00 0.00 72 1017.0
20240621171126 89 344 2.0 2.0 0.00 0.00 0.00 74 1017.0
20240621170624 88 152 0.0 0.0 0.00 0.00 0.00 73 1017.1
20240621170124 87 121 0.0 0.0 0.00 0.00 0.00 75 1017.1
20240621165623 87 265 0.0 0.0 0.00 0.00 0.00 75 1017.1
20240621165122 88 179 0.0 0.0 0.00 0.00 0.00 72 1017.1
20240621164622 88 164 1.0 2.0 0.00 0.00 0.00 74 1017.1
20240621164121 88 105 4.0 6.0 0.00 0.00 0.00 72 1017.3
20240621163620 86 170 0.0 0.0 0.00 0.00 0.00 75 1017.5
20240621163119 86 238 1.0 2.0 0.00 0.00 0.00 78 1017.4
20240621162617 86 154 4.0 5.0 0.00 0.00 0.00 76 1017.6
20240621162117 86 161 0.0 0.0 0.00 0.00 0.00 77 1017.4
20240621161616 86 133 1.0 2.0 0.00 0.00 0.00 77 1017.4
20240621161115 86 166 1.0 2.0 0.00 0.00 0.00 77 1017.6
20240621160614 86 181 0.0 0.0 0.00 0.00 0.00 77 1017.5
20240621160114 86 130 1.0 2.0 0.00 0.00 0.00 77 1017.6
20240621155612 86 229 0.0 0.0 0.00 0.00 0.00 77 1017.4
20240621155109 85 78 0.0 1.0 0.00 0.00 0.00 77 1017.7
20240621154610 86 145 2.0 3.0 0.00 0.00 0.00 78 1017.8
20240621154109 86 165 0.0 0.0 0.00 0.00 0.00 77 1017.7
20240621153608 86 114 1.0 1.0 0.00 0.00 0.00 77 1017.8
20240621153108 84 224 0.0 0.0 0.00 0.00 0.00 81 1017.9
20240621152608 85 104 0.0 0.0 0.00 0.00 0.00 80 1017.9
20240621152106 84 350 0.0 1.0 0.00 0.00 0.00 82 1018.0
20240621151605 84 153 2.0 2.0 0.00 0.00 0.00 81 1018.0
20240621151103 84 151 0.0 2.0 0.00 0.00 0.00 81 1017.8
20240621150603 84 134 0.0 0.0 0.00 0.00 0.00 79 1017.8
20240621150100 84 117 1.0 2.0 0.00 0.00 0.00 80 1017.8
20240621145600 84 159 4.0 5.0 0.00 0.00 0.00 80 1018.0
20240621145059 84 199 2.0 3.0 0.00 0.00 0.00 80 1017.8
20240621144559 84 74 0.0 1.0 0.00 0.00 0.00 81 1017.9
20240621144059 84 194 0.0 0.0 0.00 0.00 0.00 80 1017.9
20240621143558 83 144 0.0 0.0 0.00 0.00 0.00 82 1017.9
20240621143058 84 153 0.0 0.0 0.00 0.00 0.00 81 1017.8
20240621142540 84 184 0.0 0.0 0.00 0.00 0.00 81 1017.8
20240621142040 84 124 0.0 1.0 0.00 0.00 0.00 80 1017.8
20240621141538 83 171 3.0 5.0 0.00 0.00 0.00 81 1017.6
20240621141037 83 110 3.0 5.0 0.00 0.00 0.00 81 1017.6
20240621140534 82 221 0.0 0.0 0.00 0.00 0.00 83 1017.5
20240621140031 82 112 0.0 0.0 0.00 0.00 0.00 84 1017.7
20240621135529 82 170 0.0 1.0 0.00 0.00 0.00 84 1017.6
20240621135028 82 138 0.0 0.0 0.00 0.00 0.00 83 1017.5
20240621134527 84 47 3.0 5.0 0.00 0.00 0.00 80 1017.5
20240621134026 84 185 0.0 0.0 0.00 0.00 0.00 82 1017.4
20240621133524 82 112 1.0 1.0 0.00 0.00 0.00 83 1017.7
20240621133024 81 166 1.0 1.0 0.00 0.00 0.00 84 1017.8
20240621132523 80 178 0.0 0.0 0.00 0.00 0.00 85 1017.7
20240621132024 80 229 2.0 3.0 0.00 0.00 0.00 86 1017.6
20240621131521 80 82 1.0 1.0 0.00 0.00 0.00 86 1017.5
20240621131020 78 238 0.0 0.0 0.00 0.00 0.00 88 1017.4
20240621130520 79 259 2.0 3.0 0.00 0.00 0.00 87 1017.5
20240621130018 79 131 1.0 1.0 0.00 0.00 0.00 87 1017.5
20240621125516 79 245 1.0 1.0 0.00 0.00 0.00 87 1017.4
20240621125016 78 42 3.0 5.0 0.00 0.00 0.00 88 1017.4
20240621124515 78 159 0.0 0.0 0.00 0.00 0.00 88 1017.3
20240621124015 77 306 2.0 2.0 0.00 0.00 0.00 88 1017.4
20240621123515 78 161 0.0 0.0 0.00 0.00 0.00 88 1017.6
20240621123013 77 133 2.0 6.0 0.00 0.00 0.00 88 1017.3
20240621122512 77 166 0.0 0.0 0.00 0.00 0.00 89 1017.2
20240621122011 77 211 1.0 2.0 0.00 0.00 0.00 89 1017.2
20240621121510 77 229 0.0 0.0 0.00 0.00 0.00 89 1017.3
20240621121008 76 186 0.0 1.0 0.00 0.00 0.00 89 1017.1
20240621120507 76 187 0.0 0.0 0.00 0.00 0.00 89 1017.1
20240621120006 75 180 0.0 0.0 0.00 0.00 0.00 90 1017.0
20240621115503 75 245 0.0 0.0 0.00 0.00 0.00 90 1017.1
20240621115003 74 220 0.0 0.0 0.00 0.00 0.00 91 1017.1
20240621114502 74 237 0.0 0.0 0.00 0.00 0.00 92 1017.1
20240621114001 74 148 0.0 0.0 0.00 0.00 0.00 93 1017.3
20240621113459 73 164 0.0 0.0 0.00 0.00 0.00 93 1017.1
20240621112958 73 170 0.0 0.0 0.00 0.00 0.00 94 1017.2
20240621112457 73 149 0.0 0.0 0.00 0.00 0.00 94 1017.1
20240621111955 73 149 0.0 0.0 0.00 0.00 0.00 94 1017.2
20240621111451 73 166 0.0 0.0 0.00 0.00 0.00 94 1017.3
20240621110950 72 181 0.0 0.0 0.00 0.00 0.00 94 1017.1
20240621110445 72 194 0.0 0.0 0.00 0.00 0.00 95 1017.0
20240621105945 72 170 0.0 0.0 0.00 0.00 0.00 95 1017.1
20240621105444 72 176 0.0 0.0 0.00 0.00 0.00 95 1017.1
20240621104942 72 201 0.0 0.0 0.00 0.00 0.00 96 1017.2
20240621104441 72 179 0.0 0.0 0.00 0.00 0.00 96 1016.9
20240621103940 72 162 0.0 0.0 0.00 0.00 0.00 96 1016.9
20240621103438 72 142 0.0 0.0 0.00 0.00 0.00 95 1016.8
20240621102938 72 179 0.0 0.0 0.00 0.00 0.00 96 1016.7
20240621102436 72 172 0.0 0.0 0.00 0.00 0.00 96 1016.8
20240621101936 72 165 0.0 0.0 0.00 0.00 0.00 96 1016.7
20240621101435 72 172 0.0 0.0 0.00 0.00 0.00 96 1016.9
20240621100934 72 162 0.0 0.0 0.00 0.00 0.00 96 1016.5
20240621100432 71 176 0.0 0.0 0.00 0.00 0.00 95 1016.8
20240621095931 71 170 0.0 0.0 0.00 0.00 0.00 95 1017.1
20240621095430 71 162 0.0 0.0 0.00 0.00 0.00 95 1016.7
20240621094927 71 162 0.0 0.0 0.00 0.00 0.00 95 1016.9
20240621094426 71 161 0.0 0.0 0.00 0.00 0.00 95 1017.1
20240621093923 71 151 0.0 0.0 0.00 0.00 0.00 95 1016.9
20240621093421 71 149 0.0 0.0 0.00 0.00 0.00 94 1017.1
20240621092920 72 139 0.0 0.0 0.00 0.00 0.00 94 1017.1
20240621092420 72 151 0.0 0.0 0.00 0.00 0.00 94 1017.4
20240621091917 72 151 0.0 0.0 0.00 0.00 0.00 94 1017.2
20240621091416 72 149 0.0 0.0 0.00 0.00 0.00 93 1017.2
20240621090915 72 161 0.0 0.0 0.00 0.00 0.00 93 1017.1
20240621090413 72 176 0.0 0.0 0.00 0.00 0.00 93 1017.3
20240621085912 73 136 0.0 0.0 0.00 0.00 0.00 93 1017.3
20240621085410 73 105 0.0 0.0 0.00 0.00 0.00 93 1017.4
20240621084908 73 202 0.0 0.0 0.00 0.00 0.00 93 1017.5
20240621084407 73 155 0.0 0.0 0.00 0.00 0.00 92 1017.6
20240621083906 73 115 0.0 0.0 0.00 0.00 0.00 91 1017.3
20240621083405 74 91 0.0 0.0 0.00 0.00 0.00 91 1017.5
20240621082905 74 239 0.0 0.0 0.00 0.00 0.00 91 1017.3
20240621082404 74 242 0.0 0.0 0.00 0.00 0.00 91 1017.3
20240621081902 74 186 0.0 0.0 0.00 0.00 0.00 91 1017.2
20240621081400 74 179 0.0 0.0 0.00 0.00 0.00 91 1017.6
20240621080856 73 204 0.0 0.0 0.00 0.00 0.00 91 1017.3
20240621080354 73 179 0.0 0.0 0.00 0.00 0.00 91 1017.3
20240621075854 73 176 0.0 0.0 0.00 0.00 0.00 91 1017.1
20240621075352 73 172 0.0 0.0 0.00 0.00 0.00 91 1017.3
20240621074852 73 151 0.0 0.0 0.00 0.00 0.00 91 1017.1
20240621074350 73 156 0.0 0.0 0.00 0.00 0.00 91 1017.2
20240621073850 73 162 0.0 0.0 0.00 0.00 0.00 91 1017.4
20240621073347 73 162 0.0 0.0 0.00 0.00 0.00 91 1017.3
20240621072846 73 162 0.0 0.0 0.00 0.00 0.00 91 1017.4
20240621072345 73 162 0.0 0.0 0.00 0.00 0.00 91 1017.5
20240621071843 73 161 0.0 0.0 0.00 0.00 0.00 90 1017.5
20240621071342 74 142 0.0 0.0 0.00 0.00 0.00 90 1017.6
20240621070840 74 162 0.0 0.0 0.00 0.00 0.00 90 1017.7
20240621070340 74 157 0.0 0.0 0.00 0.00 0.00 90 1017.8
20240621065837 74 158 0.0 0.0 0.00 0.00 0.00 89 1017.8
20240621065336 74 153 0.0 0.0 0.00 0.00 0.00 89 1017.8
20240621064835 75 153 0.0 0.0 0.00 0.00 0.00 89 1017.6
20240621064333 75 162 0.0 0.0 0.00 0.00 0.00 89 1017.7
20240621063832 75 166 0.0 0.0 0.00 0.00 0.00 89 1018.0
20240621063330 75 162 0.0 0.0 0.00 0.00 0.00 89 1017.8
20240621062828 75 165 0.0 0.0 0.00 0.00 0.00 89 1017.8
20240621062327 74 163 0.0 0.0 0.00 0.00 0.00 89 1017.9
20240621061826 74 164 0.0 0.0 0.00 0.00 0.00 89 1017.9
20240621061325 74 164 0.0 0.0 0.00 0.00 0.00 89 1017.9
20240621060823 74 162 0.0 0.0 0.00 0.00 0.00 89 1018.0
20240621060321 74 162 0.0 0.0 0.00 0.00 0.00 89 1018.4
20240621055821 75 158 0.0 0.0 0.00 0.00 0.00 89 1018.1
20240621055320 75 153 0.0 0.0 0.00 0.00 0.00 89 1018.2
20240621054819 75 134 0.0 0.0 0.00 0.00 0.00 89 1018.5
20240621054318 75 129 0.0 0.0 0.00 0.00 0.00 88 1018.3
20240621053818 75 144 0.0 0.0 0.00 0.00 0.00 88 1018.4
20240621053318 75 151 0.0 0.0 0.00 0.00 0.00 87 1018.4
20240621052818 75 171 0.0 0.0 0.00 0.00 0.00 86 1018.3
20240621052317 75 154 0.0 0.0 0.00 0.00 0.00 86 1018.6
20240621051816 75 163 0.0 0.0 0.00 0.00 0.00 86 1018.2
20240621051314 76 140 0.0 0.0 0.00 0.00 0.00 86 1018.2
20240621050812 76 176 0.0 0.0 0.00 0.00 0.00 85 1018.1
20240621050311 76 172 0.0 0.0 0.00 0.00 0.00 85 1018.3
20240621045811 76 167 0.0 0.0 0.00 0.00 0.00 85 1018.5
20240621045311 76 159 0.0 0.0 0.00 0.00 0.00 85 1018.1
20240621044809 76 166 0.0 0.0 0.00 0.00 0.00 85 1018.3
20240621044308 76 157 0.0 0.0 0.00 0.00 0.00 84 1018.4
20240621043807 76 154 0.0 0.0 0.00 0.00 0.00 84 1018.4
20240621043306 75 68 2.0 2.0 0.00 0.00 0.00 85 1018.3
20240621042804 75 155 0.0 0.0 0.00 0.00 0.00 85 1018.4
20240621042306 75 149 0.0 0.0 0.00 0.00 0.00 85 1018.5
20240621041800 75 173 0.0 0.0 0.00 0.00 0.00 85 1018.7
20240621041259 75 161 0.0 0.0 0.00 0.00 0.00 85 1018.6
20240621040759 75 143 0.0 0.0 0.00 0.00 0.00 84 1018.6
20240621040257 75 150 0.0 0.0 0.00 0.00 0.00 84 1018.9
20240621035757 76 148 0.0 0.0 0.00 0.00 0.00 83 1018.8
20240621035255 76 156 0.0 0.0 0.00 0.00 0.00 83 1018.7
20240621034753 76 161 0.0 1.0 0.00 0.00 0.00 83 1018.8
20240621034249 76 144 0.0 0.0 0.00 0.00 0.00 82 1018.7
20240621033748 76 154 0.0 1.0 0.00 0.00 0.00 82 1018.8
20240621033247 76 133 0.0 0.0 0.00 0.00 0.00 82 1018.9
20240621032747 76 120 1.0 1.0 0.00 0.00 0.00 81 1018.9
20240621032246 76 146 0.0 0.0 0.00 0.00 0.00 82 1018.9
20240621031744 76 141 0.0 1.0 0.00 0.00 0.00 82 1019.0
20240621031244 76 156 0.0 0.0 0.00 0.00 0.00 82 1019.2
20240621030743 76 146 0.0 0.0 0.00 0.00 0.00 81 1019.0
20240621030242 77 156 0.0 0.0 0.00 0.00 0.00 80 1019.0
20240621025742 77 144 0.0 0.0 0.00 0.00 0.00 80 1018.8
20240621025243 77 123 0.0 1.0 0.00 0.00 0.00 79 1018.7
20240621024741 77 149 0.0 0.0 0.00 0.00 0.00 79 1019.0
20240621024240 78 144 0.0 0.0 0.00 0.00 0.00 78 1018.7
20240621023740 78 135 1.0 1.0 0.00 0.00 0.00 77 1018.9
20240621023238 78 43 2.0 2.0 0.00 0.00 0.00 76 1018.7
20240621022737 78 134 1.0 1.0 0.00 0.00 0.00 76 1018.8
20240621022235 78 158 0.0 0.0 0.00 0.00 0.00 76 1018.7
20240621021734 78 164 0.0 0.0 0.00 0.00 0.00 76 1018.5
20240621021233 78 133 1.0 2.0 0.00 0.00 0.00 77 1018.7
20240621020732 78 159 0.0 1.0 0.00 0.00 0.00 76 1018.4
20240621020231 78 126 0.0 0.0 0.00 0.00 0.00 77 1018.4
20240621015730 79 153 0.0 0.0 0.00 0.00 0.00 77 1018.3
20240621015228 79 152 0.0 0.0 0.00 0.00 0.00 76 1018.2
20240621014727 79 151 0.0 0.0 0.00 0.00 0.00 74 1018.1
20240621014225 80 115 0.0 0.0 0.00 0.00 0.00 74 1018.0
20240621013723 80 151 0.0 0.0 0.00 0.00 0.00 74 1018.0
20240621013221 80 152 1.0 1.0 0.00 0.00 0.00 73 1017.9
20240621012720 80 164 0.0 0.0 0.00 0.00 0.00 73 1017.9
20240621012219 81 160 0.0 0.0 0.00 0.00 0.00 73 1017.9
20240621011720 81 125 1.0 1.0 0.00 0.00 0.00 72 1017.8
20240621011219 81 148 0.0 1.0 0.00 0.00 0.00 71 1017.7
20240621010717 82 138 1.0 1.0 0.00 0.00 0.00 71 1017.7
20240621010215 82 172 1.0 2.0 0.00 0.00 0.00 70 1017.5
20240621005712 82 134 2.0 3.0 0.00 0.00 0.00 70 1017.4
20240621005211 83 153 4.0 6.0 0.00 0.00 0.00 69 1017.5
20240621004710 83 136 2.0 2.0 0.00 0.00 0.00 69 1017.5
20240621004210 83 308 3.0 3.0 0.00 0.00 0.00 68 1017.6
20240621003708 84 166 1.0 2.0 0.00 0.00 0.00 68 1017.3
20240621003207 84 130 1.0 2.0 0.00 0.00 0.00 68 1017.2
20240621002706 84 107 0.0 0.0 0.00 0.00 0.00 69 1017.4
20240621002204 84 158 1.0 1.0 0.00 0.00 0.00 68 1017.2
20240621001703 84 355 2.0 3.0 0.00 0.00 0.00 68 1017.5
20240621001201 85 160 0.0 1.0 0.00 0.00 0.00 67 1017.5
20240621000701 85 101 2.0 2.0 0.00 0.00 0.00 66 1017.4
20240621000204 85 132 1.0 1.0 0.00 0.00 0.00 66 1017.5
20240620235700 86 190 3.0 3.0 0.00 0.00 0.00 66 1017.4
20240620235158 86 54 5.0 8.0 0.00 0.00 0.00 64 1017.1
20240620234657 87 121 3.0 5.0 0.00 0.00 0.00 63 1017.3
20240620234156 87 93 0.0 0.0 0.00 0.00 0.00 62 1017.2
20240620233654 87 221 3.0 5.0 0.00 0.00 0.00 61 1017.1
20240620233152 88 173 1.0 1.0 0.00 0.00 0.00 61 1017.1
20240620232651 88 154 3.0 3.0 0.00 0.00 0.00 60 1017.0
20240620232149 88 128 2.0 3.0 0.00 0.00 0.00 59 1016.9
20240620231648 88 132 2.0 2.0 0.00 0.00 0.00 59 1016.9
20240620231148 88 113 3.0 6.0 0.00 0.00 0.00 61 1016.9
20240620230646 88 154 1.0 1.0 0.00 0.00 0.00 61 1016.9
20240620230143 89 170 5.0 9.0 0.00 0.00 0.00 60 1016.7
20240620225641 89 132 3.0 3.0 0.00 0.00 0.00 59 1016.7
20240620225141 90 196 2.0 3.0 0.00 0.00 0.00 58 1016.8
20240620224639 90 51 2.0 3.0 0.00 0.00 0.00 58 1016.7
20240620224137 90 153 2.0 3.0 0.00 0.00 0.00 58 1016.8
20240620223635 90 190 4.0 6.0 0.00 0.00 0.00 58 1016.8
20240620223134 90 188 2.0 2.0 0.00 0.00 0.00 58 1016.6
20240620222633 90 159 3.0 5.0 0.00 0.00 0.00 59 1016.6
20240620222131 90 160 1.0 2.0 0.00 0.00 0.00 59 1016.6
20240620221631 89 132 2.0 2.0 0.00 0.00 0.00 59 1016.8
20240620221130 89 162 5.0 7.0 0.00 0.00 0.00 60 1016.7
20240620220628 89 59 2.0 3.0 0.00 0.00 0.00 61 1016.7
20240620220127 89 144 6.0 9.0 0.00 0.00 0.00 59 1016.7
20240620215625 89 207 3.0 5.0 0.00 0.00 0.00 60 1016.6
20240620215124 89 123 4.0 8.0 0.00 0.00 0.00 59 1016.6
20240620214624 90 129 5.0 8.0 0.00 0.00 0.00 59 1016.6
20240620214122 90 168 4.0 6.0 0.00 0.00 0.00 59 1016.6
20240620213621 92 13 3.0 5.0 0.00 0.00 0.00 60 1016.5
20240620213120 91 164 2.0 3.0 0.00 0.00 0.00 60 1016.7
20240620212619 91 175 3.0 5.0 0.00 0.00 0.00 60 1017.0
20240620212118 91 158 4.0 6.0 0.00 0.00 0.00 59 1016.9
20240620211617 92 172 3.0 5.0 0.00 0.00 0.00 58 1016.8
20240620211116 92 128 2.0 2.0 0.00 0.00 0.00 59 1016.5
20240620210614 91 58 2.0 5.0 0.00 0.00 0.00 60 1016.7
20240620210113 91 139 4.0 6.0 0.00 0.00 0.00 61 1017.0
20240620205610 91 173 3.0 3.0 0.00 0.00 0.00 63 1016.8
20240620205108 91 142 2.0 2.0 0.00 0.00 0.00 63 1017.0
20240620204605 91 78 5.0 7.0 0.00 0.00 0.00 64 1017.1
20240620204103 90 109 3.0 3.0 0.00 0.00 0.00 67 1017.2
20240620203603 88 75 2.0 2.0 0.00 0.00 0.00 70 1017.1
20240620203102 86 151 1.0 1.0 0.00 0.00 0.00 74 1017.3
20240620202558 84 43 1.0 2.0 0.00 0.00 0.00 79 1017.2
20240620202057 83 157 1.0 1.0 0.00 0.00 0.00 81 1017.3
20240620201556 83 155 0.0 0.0 0.00 0.00 0.00 82 1017.3